sensor_id;sensor_type;location;lat;lon;timestamp;pressure;altitude;pressure_sealevel;temperature;humidity
18533;BME280;9396;51.510;11.934;2023-07-24T00:00:13;99588.28;;;21.59;81.19
18533;BME280;9396;51.510;11.934;2023-07-24T00:02:39;99587.41;;;21.54;81.82
18533;BME280;9396;51.510;11.934;2023-07-24T00:05:07;99579.75;;;21.51;81.46
18533;BME280;9396;51.510;11.934;2023-07-24T00:07:36;99575.16;;;21.51;81.91
18533;BME280;9396;51.510;11.934;2023-07-24T00:10:04;99581.50;;;21.57;81.67
18533;BME280;9396;51.510;11.934;2023-07-24T00:12:31;99582.53;;;21.56;82.07
18533;BME280;9396;51.510;11.934;2023-07-24T00:14:58;99578.53;;;21.58;81.81
18533;BME280;9396;51.510;11.934;2023-07-24T00:17:24;99576.66;;;21.59;82.49
18533;BME280;9396;51.510;11.934;2023-07-24T00:19:51;99572.63;;;21.61;82.34
18533;BME280;9396;51.510;11.934;2023-07-24T00:22:18;99577.72;;;21.58;82.69
18533;BME280;9396;51.510;11.934;2023-07-24T00:24:46;99568.66;;;21.52;82.73
18533;BME280;9396;51.510;11.934;2023-07-24T00:27:12;99568.91;;;21.51;83.18
18533;BME280;9396;51.510;11.934;2023-07-24T00:29:40;99563.72;;;21.33;83.50
18533;BME280;9396;51.510;11.934;2023-07-24T00:32:07;99561.69;;;21.40;83.58
18533;BME280;9396;51.510;11.934;2023-07-24T00:34:34;99558.09;;;21.34;83.84
18533;BME280;9396;51.510;11.934;2023-07-24T00:37:00;99556.28;;;21.40;84.13
18533;BME280;9396;51.510;11.934;2023-07-24T00:39:27;99544.16;;;21.42;84.10
18533;BME280;9396;51.510;11.934;2023-07-24T00:41:56;99539.56;;;21.43;83.81
18533;BME280;9396;51.510;11.934;2023-07-24T00:44:23;99548.84;;;21.47;83.67
18533;BME280;9396;51.510;11.934;2023-07-24T00:46:49;99540.22;;;21.50;83.55
18533;BME280;9396;51.510;11.934;2023-07-24T00:49:17;99538.56;;;21.49;83.81
18533;BME280;9396;51.510;11.934;2023-07-24T00:51:44;99547.75;;;21.48;83.81
18533;BME280;9396;51.510;11.934;2023-07-24T00:54:11;99540.16;;;21.45;83.76
18533;BME280;9396;51.510;11.934;2023-07-24T00:56:38;99546.13;;;21.47;83.77
18533;BME280;9396;51.510;11.934;2023-07-24T00:59:07;99540.41;;;21.43;83.71
18533;BME280;9396;51.510;11.934;2023-07-24T01:01:35;99544.97;;;21.43;84.20
18533;BME280;9396;51.510;11.934;2023-07-24T01:04:04;99546.03;;;21.42;84.16
18533;BME280;9396;51.510;11.934;2023-07-24T01:06:32;99537.69;;;21.43;84.07
18533;BME280;9396;51.510;11.934;2023-07-24T01:08:58;99535.44;;;21.40;84.00
18533;BME280;9396;51.510;11.934;2023-07-24T01:11:28;99538.91;;;21.36;84.20
18533;BME280;9396;51.510;11.934;2023-07-24T01:13:58;99534.47;;;21.29;83.98
18533;BME280;9396;51.510;11.934;2023-07-24T01:16:33;99535.53;;;21.28;84.37
18533;BME280;9396;51.510;11.934;2023-07-24T01:19:04;99530.22;;;21.34;84.42
18533;BME280;9396;51.510;11.934;2023-07-24T01:21:52;99529.03;;;21.29;84.16
18533;BME280;9396;51.510;11.934;2023-07-24T01:24:36;99527.75;;;21.32;84.34
18533;BME280;9396;51.510;11.934;2023-07-24T01:27:07;99526.84;;;21.26;84.21
18533;BME280;9396;51.510;11.934;2023-07-24T01:29:33;99530.72;;;21.31;84.16
18533;BME280;9396;51.510;11.934;2023-07-24T01:32:00;99537.34;;;21.23;84.49
18533;BME280;9396;51.510;11.934;2023-07-24T01:34:27;99539.03;;;21.12;84.57
18533;BME280;9396;51.510;11.934;2023-07-24T01:36:54;99536.91;;;21.14;84.78
18533;BME280;9396;51.510;11.934;2023-07-24T01:39:21;99534.09;;;21.09;84.88
18533;BME280;9396;51.510;11.934;2023-07-24T01:41:48;99533.72;;;21.17;84.87
18533;BME280;9396;51.510;11.934;2023-07-24T01:44:16;99523.13;;;21.16;84.84
18533;BME280;9396;51.510;11.934;2023-07-24T01:46:43;99521.81;;;21.18;84.61
18533;BME280;9396;51.510;11.934;2023-07-24T01:49:10;99516.72;;;21.22;84.51
18533;BME280;9396;51.510;11.934;2023-07-24T01:51:37;99521.94;;;21.23;84.70
18533;BME280;9396;51.510;11.934;2023-07-24T01:54:03;99518.66;;;21.21;84.84
18533;BME280;9396;51.510;11.934;2023-07-24T01:56:30;99513.03;;;21.11;85.66
18533;BME280;9396;51.510;11.934;2023-07-24T01:58:56;99513.03;;;21.11;85.71
18533;BME280;9396;51.510;11.934;2023-07-24T02:01:24;99503.03;;;21.12;85.79
18533;BME280;9396;51.510;11.934;2023-07-24T02:03:51;99496.00;;;21.11;85.61
18533;BME280;9396;51.510;11.934;2023-07-24T02:06:18;99494.41;;;20.98;85.37
18533;BME280;9396;51.510;11.934;2023-07-24T02:08:44;99498.50;;;21.01;85.56
18533;BME280;9396;51.510;11.934;2023-07-24T02:11:14;99493.94;;;21.01;85.94
18533;BME280;9396;51.510;11.934;2023-07-24T02:13:43;99496.50;;;20.96;85.79
18533;BME280;9396;51.510;11.934;2023-07-24T02:16:09;99513.31;;;20.98;85.81
18533;BME280;9396;51.510;11.934;2023-07-24T02:18:38;99510.84;;;20.97;85.89
18533;BME280;9396;51.510;11.934;2023-07-24T02:21:05;99511.91;;;20.96;85.93
18533;BME280;9396;51.510;11.934;2023-07-24T02:23:31;99509.75;;;20.81;85.77
18533;BME280;9396;51.510;11.934;2023-07-24T02:25:58;99512.53;;;20.86;85.82
18533;BME280;9396;51.510;11.934;2023-07-24T02:28:25;99512.06;;;20.89;85.88
18533;BME280;9396;51.510;11.934;2023-07-24T02:30:51;99507.25;;;20.91;85.94
18533;BME280;9396;51.510;11.934;2023-07-24T02:33:21;99504.03;;;20.94;85.86
18533;BME280;9396;51.510;11.934;2023-07-24T02:35:51;99502.16;;;20.95;86.11
18533;BME280;9396;51.510;11.934;2023-07-24T02:38:18;99506.50;;;20.96;85.93
18533;BME280;9396;51.510;11.934;2023-07-24T02:40:45;99512.16;;;20.94;85.70
18533;BME280;9396;51.510;11.934;2023-07-24T02:43:12;99511.31;;;20.94;85.65
18533;BME280;9396;51.510;11.934;2023-07-24T02:45:38;99502.88;;;20.90;85.75
18533;BME280;9396;51.510;11.934;2023-07-24T02:48:05;99507.63;;;20.83;86.04
18533;BME280;9396;51.510;11.934;2023-07-24T02:50:32;99517.59;;;20.83;85.95
18533;BME280;9396;51.510;11.934;2023-07-24T02:53:01;99510.56;;;20.82;86.50
18533;BME280;9396;51.510;11.934;2023-07-24T02:55:27;99515.41;;;20.80;86.59
18533;BME280;9396;51.510;11.934;2023-07-24T02:57:54;99516.94;;;20.76;86.77
18533;BME280;9396;51.510;11.934;2023-07-24T03:00:21;99513.31;;;20.70;86.68
18533;BME280;9396;51.510;11.934;2023-07-24T03:02:47;99521.31;;;20.65;86.76
18533;BME280;9396;51.510;11.934;2023-07-24T03:05:14;99516.50;;;20.67;86.76
18533;BME280;9396;51.510;11.934;2023-07-24T03:07:41;99514.19;;;20.59;87.13
18533;BME280;9396;51.510;11.934;2023-07-24T03:10:10;99515.13;;;20.53;87.13
18533;BME280;9396;51.510;11.934;2023-07-24T03:12:36;99515.75;;;20.44;87.13
18533;BME280;9396;51.510;11.934;2023-07-24T03:15:04;99510.56;;;20.42;87.05
18533;BME280;9396;51.510;11.934;2023-07-24T03:17:31;99513.88;;;20.44;86.80
18533;BME280;9396;51.510;11.934;2023-07-24T03:19:57;99506.59;;;20.45;86.63
18533;BME280;9396;51.510;11.934;2023-07-24T03:22:24;99506.34;;;20.46;86.78
18533;BME280;9396;51.510;11.934;2023-07-24T03:24:50;99506.84;;;20.43;86.62
18533;BME280;9396;51.510;11.934;2023-07-24T03:27:18;99501.69;;;20.42;86.67
18533;BME280;9396;51.510;11.934;2023-07-24T03:29:45;99501.88;;;20.40;86.69
18533;BME280;9396;51.510;11.934;2023-07-24T03:32:11;99495.94;;;20.38;86.92
18533;BME280;9396;51.510;11.934;2023-07-24T03:34:39;99497.56;;;20.39;86.66
18533;BME280;9396;51.510;11.934;2023-07-24T03:37:06;99502.38;;;20.37;86.50
18533;BME280;9396;51.510;11.934;2023-07-24T03:39:32;99498.16;;;20.41;86.22
18533;BME280;9396;51.510;11.934;2023-07-24T03:41:59;99510.00;;;20.40;86.38
18533;BME280;9396;51.510;11.934;2023-07-24T03:44:27;99501.44;;;20.43;86.54
18533;BME280;9396;51.510;11.934;2023-07-24T03:46:53;99503.06;;;20.44;86.73
18533;BME280;9396;51.510;11.934;2023-07-24T03:49:20;99501.00;;;20.23;87.97
18533;BME280;9396;51.510;11.934;2023-07-24T03:51:48;99502.19;;;20.27;88.12
18533;BME280;9396;51.510;11.934;2023-07-24T03:54:14;99502.19;;;20.27;88.26
18533;BME280;9396;51.510;11.934;2023-07-24T03:56:41;99506.25;;;20.30;88.25
18533;BME280;9396;51.510;11.934;2023-07-24T03:59:08;99504.38;;;20.30;88.36
18533;BME280;9396;51.510;11.934;2023-07-24T04:01:36;99502.75;;;20.29;88.58
18533;BME280;9396;51.510;11.934;2023-07-24T04:04:03;99501.22;;;20.10;89.08
18533;BME280;9396;51.510;11.934;2023-07-24T04:06:29;99500.75;;;20.13;89.36
18533;BME280;9396;51.510;11.934;2023-07-24T04:08:56;99503.31;;;20.08;89.81
18533;BME280;9396;51.510;11.934;2023-07-24T04:11:23;99496.78;;;20.04;89.99
18533;BME280;9396;51.510;11.934;2023-07-24T04:13:49;99499.59;;;20.09;90.07
18533;BME280;9396;51.510;11.934;2023-07-24T04:16:16;99491.59;;;20.14;90.09
18533;BME280;9396;51.510;11.934;2023-07-24T04:18:44;99488.78;;;20.09;90.30
18533;BME280;9396;51.510;11.934;2023-07-24T04:21:10;99499.09;;;20.12;90.73
18533;BME280;9396;51.510;11.934;2023-07-24T04:23:37;99487.94;;;20.08;90.97
18533;BME280;9396;51.510;11.934;2023-07-24T04:26:04;99489.28;;;20.06;91.04
18533;BME280;9396;51.510;11.934;2023-07-24T04:28:30;99482.31;;;20.10;91.02
18533;BME280;9396;51.510;11.934;2023-07-24T04:30:59;99477.97;;;20.09;91.30
18533;BME280;9396;51.510;11.934;2023-07-24T04:33:26;99473.41;;;20.09;91.25
18533;BME280;9396;51.510;11.934;2023-07-24T04:35:54;99475.53;;;20.07;91.91
18533;BME280;9396;51.510;11.934;2023-07-24T04:38:21;99474.00;;;20.00;92.47
18533;BME280;9396;51.510;11.934;2023-07-24T04:40:48;99468.81;;;20.10;92.66
18533;BME280;9396;51.510;11.934;2023-07-24T04:43:15;99467.41;;;20.19;92.31
18533;BME280;9396;51.510;11.934;2023-07-24T04:45:41;99464.59;;;20.26;91.99
18533;BME280;9396;51.510;11.934;2023-07-24T04:48:08;99456.25;;;20.27;92.48
18533;BME280;9396;51.510;11.934;2023-07-24T04:50:35;99449.78;;;20.28;92.63
18533;BME280;9396;51.510;11.934;2023-07-24T04:53:03;99446.72;;;20.36;92.34
18533;BME280;9396;51.510;11.934;2023-07-24T04:55:29;99445.50;;;20.44;92.24
18533;BME280;9396;51.510;11.934;2023-07-24T04:57:56;99443.63;;;20.44;92.35
18533;BME280;9396;51.510;11.934;2023-07-24T05:00:22;99436.09;;;20.46;92.95
18533;BME280;9396;51.510;11.934;2023-07-24T05:02:49;99442.56;;;20.45;92.78
18533;BME280;9396;51.510;11.934;2023-07-24T05:05:16;99447.22;;;20.50;92.72
18533;BME280;9396;51.510;11.934;2023-07-24T05:07:43;99435.94;;;20.53;92.87
18533;BME280;9396;51.510;11.934;2023-07-24T05:10:11;99445.13;;;20.52;92.55
18533;BME280;9396;51.510;11.934;2023-07-24T05:12:40;99435.81;;;20.59;92.27
18533;BME280;9396;51.510;11.934;2023-07-24T05:15:08;99432.94;;;20.66;91.99
18533;BME280;9396;51.510;11.934;2023-07-24T05:17:34;99440.66;;;20.74;91.42
18533;BME280;9396;51.510;11.934;2023-07-24T05:20:01;99439.09;;;20.78;90.82
18533;BME280;9396;51.510;11.934;2023-07-24T05:22:28;99437.31;;;20.83;90.40
18533;BME280;9396;51.510;11.934;2023-07-24T05:24:54;99432.00;;;20.88;90.21
18533;BME280;9396;51.510;11.934;2023-07-24T05:27:22;99435.28;;;20.90;89.23
18533;BME280;9396;51.510;11.934;2023-07-24T05:29:49;99439.53;;;20.86;87.33
18533;BME280;9396;51.510;11.934;2023-07-24T05:32:15;99439.16;;;20.94;87.26
18533;BME280;9396;51.510;11.934;2023-07-24T05:34:41;99442.28;;;21.03;87.82
18533;BME280;9396;51.510;11.934;2023-07-24T05:37:08;99432.97;;;21.10;86.99
18533;BME280;9396;51.510;11.934;2023-07-24T05:39:35;99431.81;;;21.06;86.54
18533;BME280;9396;51.510;11.934;2023-07-24T05:42:02;99436.25;;;21.12;86.20
18533;BME280;9396;51.510;11.934;2023-07-24T05:44:30;99443.94;;;21.20;86.33
18533;BME280;9396;51.510;11.934;2023-07-24T05:46:58;99433.03;;;21.32;85.61
18533;BME280;9396;51.510;11.934;2023-07-24T05:49:25;99432.94;;;21.44;84.69
18533;BME280;9396;51.510;11.934;2023-07-24T05:51:52;99423.16;;;21.59;83.82
18533;BME280;9396;51.510;11.934;2023-07-24T05:54:19;99421.97;;;21.72;83.06
18533;BME280;9396;51.510;11.934;2023-07-24T05:56:46;99416.44;;;22.00;81.82
18533;BME280;9396;51.510;11.934;2023-07-24T05:59:13;99402.22;;;22.36;80.21
18533;BME280;9396;51.510;11.934;2023-07-24T06:01:41;99409.78;;;22.82;79.64
18533;BME280;9396;51.510;11.934;2023-07-24T06:04:07;99412.53;;;23.51;77.32
18533;BME280;9396;51.510;11.934;2023-07-24T06:06:34;99409.69;;;24.19;75.44
18533;BME280;9396;51.510;11.934;2023-07-24T06:09:02;99412.72;;;24.42;73.91
18533;BME280;9396;51.510;11.934;2023-07-24T06:11:28;99414.50;;;24.99;71.95
18533;BME280;9396;51.510;11.934;2023-07-24T06:13:55;99404.16;;;24.86;70.19
18533;BME280;9396;51.510;11.934;2023-07-24T06:16:22;99402.81;;;24.88;72.00
18533;BME280;9396;51.510;11.934;2023-07-24T06:18:50;99385.09;;;25.36;70.00
18533;BME280;9396;51.510;11.934;2023-07-24T06:21:16;99381.47;;;25.81;69.55
18533;BME280;9396;51.510;11.934;2023-07-24T06:23:43;99381.75;;;26.43;67.35
18533;BME280;9396;51.510;11.934;2023-07-24T06:26:09;99370.34;;;26.80;66.65
18533;BME280;9396;51.510;11.934;2023-07-24T06:28:36;99375.34;;;27.01;65.57
18533;BME280;9396;51.510;11.934;2023-07-24T06:31:03;99366.75;;;27.18;65.06
18533;BME280;9396;51.510;11.934;2023-07-24T06:33:29;99369.06;;;28.10;64.58
18533;BME280;9396;51.510;11.934;2023-07-24T06:35:57;99355.88;;;28.55;61.90
18533;BME280;9396;51.510;11.934;2023-07-24T06:38:24;99365.47;;;28.33;62.11
18533;BME280;9396;51.510;11.934;2023-07-24T06:40:51;99369.38;;;28.09;62.46
18533;BME280;9396;51.510;11.934;2023-07-24T06:43:17;99369.63;;;28.07;63.72
18533;BME280;9396;51.510;11.934;2023-07-24T06:45:44;99351.38;;;28.64;62.36
18533;BME280;9396;51.510;11.934;2023-07-24T06:48:11;99350.13;;;28.56;61.15
18533;BME280;9396;51.510;11.934;2023-07-24T06:50:37;99355.72;;;28.46;61.53
18533;BME280;9396;51.510;11.934;2023-07-24T06:53:05;99360.41;;;28.22;62.07
18533;BME280;9396;51.510;11.934;2023-07-24T06:55:32;99363.63;;;27.29;64.15
18533;BME280;9396;51.510;11.934;2023-07-24T06:57:58;99358.59;;;26.79;64.57
18533;BME280;9396;51.510;11.934;2023-07-24T07:00:25;99365.88;;;26.50;65.87
18533;BME280;9396;51.510;11.934;2023-07-24T07:02:52;99357.63;;;26.16;66.08
18533;BME280;9396;51.510;11.934;2023-07-24T07:05:18;99355.28;;;25.80;67.13
18533;BME280;9396;51.510;11.934;2023-07-24T07:07:45;99361.94;;;25.54;68.54
18533;BME280;9396;51.510;11.934;2023-07-24T07:10:13;99373.94;;;25.12;69.56
18533;BME280;9396;51.510;11.934;2023-07-24T07:12:40;99365.25;;;25.00;69.34
18533;BME280;9396;51.510;11.934;2023-07-24T07:15:07;99360.06;;;24.94;69.21
18533;BME280;9396;51.510;11.934;2023-07-24T07:17:34;99356.25;;;24.95;70.87
18533;BME280;9396;51.510;11.934;2023-07-24T07:20:01;99355.16;;;24.91;70.21
18533;BME280;9396;51.510;11.934;2023-07-24T07:22:28;99367.94;;;24.85;70.21
18533;BME280;9396;51.510;11.934;2023-07-24T07:24:55;99362.50;;;24.80;68.89
18533;BME280;9396;51.510;11.934;2023-07-24T07:27:23;99366.06;;;24.81;68.97
18533;BME280;9396;51.510;11.934;2023-07-24T07:29:49;99361.94;;;24.68;68.97
18533;BME280;9396;51.510;11.934;2023-07-24T07:32:16;99354.56;;;24.59;69.55
18533;BME280;9396;51.510;11.934;2023-07-24T07:34:43;99356.44;;;24.48;69.58
18533;BME280;9396;51.510;11.934;2023-07-24T07:37:09;99374.66;;;24.42;68.96
18533;BME280;9396;51.510;11.934;2023-07-24T07:39:36;99367.31;;;24.38;69.51
18533;BME280;9396;51.510;11.934;2023-07-24T07:42:03;99374.09;;;24.35;69.21
18533;BME280;9396;51.510;11.934;2023-07-24T07:44:31;99370.31;;;24.36;69.44
18533;BME280;9396;51.510;11.934;2023-07-24T07:46:57;99361.88;;;24.38;69.69
18533;BME280;9396;51.510;11.934;2023-07-24T07:49:24;99355.34;;;24.39;69.23
18533;BME280;9396;51.510;11.934;2023-07-24T07:51:51;99348.28;;;24.43;69.09
18533;BME280;9396;51.510;11.934;2023-07-24T07:54:17;99344.22;;;24.51;68.95
18533;BME280;9396;51.510;11.934;2023-07-24T07:56:44;99342.06;;;24.58;69.32
18533;BME280;9396;51.510;11.934;2023-07-24T07:59:11;99335.78;;;24.62;68.80
18533;BME280;9396;51.510;11.934;2023-07-24T08:01:39;99324.69;;;24.79;69.47
18533;BME280;9396;51.510;11.934;2023-07-24T08:04:06;99322.19;;;25.27;69.53
18533;BME280;9396;51.510;11.934;2023-07-24T08:06:32;99319.13;;;25.64;67.36
18533;BME280;9396;51.510;11.934;2023-07-24T08:08:59;99318.16;;;25.94;65.57
18533;BME280;9396;51.510;11.934;2023-07-24T08:11:25;99303.09;;;26.16;66.32
18533;BME280;9396;51.510;11.934;2023-07-24T08:13:52;99302.72;;;26.28;64.67
18533;BME280;9396;51.510;11.934;2023-07-24T08:16:19;99298.75;;;26.49;65.90
18533;BME280;9396;51.510;11.934;2023-07-24T08:18:47;99296.75;;;26.60;64.42
18533;BME280;9396;51.510;11.934;2023-07-24T08:21:14;99297.06;;;26.58;64.88
18533;BME280;9396;51.510;11.934;2023-07-24T08:23:41;99287.53;;;26.56;64.93
18533;BME280;9396;51.510;11.934;2023-07-24T08:26:08;99290.47;;;26.64;64.74
18533;BME280;9396;51.510;11.934;2023-07-24T08:28:35;99281.94;;;26.76;65.75
18533;BME280;9396;51.510;11.934;2023-07-24T08:31:01;99290.34;;;26.84;63.52
18533;BME280;9396;51.510;11.934;2023-07-24T08:33:28;99291.91;;;26.90;63.81
18533;BME280;9396;51.510;11.934;2023-07-24T08:36:00;99279.59;;;26.93;63.31
18533;BME280;9396;51.510;11.934;2023-07-24T08:38:27;99287.63;;;27.08;63.52
18533;BME280;9396;51.510;11.934;2023-07-24T08:41:01;99283.06;;;27.03;62.87
18533;BME280;9396;51.510;11.934;2023-07-24T08:43:29;99283.63;;;27.00;62.69
18533;BME280;9396;51.510;11.934;2023-07-24T08:45:58;99275.69;;;26.75;63.10
18533;BME280;9396;51.510;11.934;2023-07-24T08:48:25;99274.91;;;26.65;62.77
18533;BME280;9396;51.510;11.934;2023-07-24T08:50:53;99285.13;;;26.88;63.26
18533;BME280;9396;51.510;11.934;2023-07-24T08:53:21;99267.19;;;27.05;62.36
18533;BME280;9396;51.510;11.934;2023-07-24T08:55:48;99275.84;;;27.41;62.32
18533;BME280;9396;51.510;11.934;2023-07-24T08:58:15;99274.59;;;27.76;62.13
18533;BME280;9396;51.510;11.934;2023-07-24T09:00:41;99283.38;;;27.91;60.37
18533;BME280;9396;51.510;11.934;2023-07-24T09:03:08;99269.94;;;28.00;59.89
18533;BME280;9396;51.510;11.934;2023-07-24T09:05:35;99248.53;;;28.20;60.87
18533;BME280;9396;51.510;11.934;2023-07-24T09:08:02;99249.59;;;28.24;60.71
18533;BME280;9396;51.510;11.934;2023-07-24T09:10:30;99237.06;;;28.37;59.62
18533;BME280;9396;51.510;11.934;2023-07-24T09:12:57;99239.44;;;28.62;59.07
18533;BME280;9396;51.510;11.934;2023-07-24T09:15:24;99248.28;;;28.86;58.80
18533;BME280;9396;51.510;11.934;2023-07-24T09:17:51;99244.06;;;28.94;58.30
18533;BME280;9396;51.510;11.934;2023-07-24T09:20:19;99243.75;;;29.09;58.24
18533;BME280;9396;51.510;11.934;2023-07-24T09:22:49;99243.59;;;29.32;58.35
18533;BME280;9396;51.510;11.934;2023-07-24T09:25:16;99240.47;;;29.52;58.24
18533;BME280;9396;51.510;11.934;2023-07-24T09:27:44;99229.69;;;29.70;57.70
18533;BME280;9396;51.510;11.934;2023-07-24T09:30:14;99236.16;;;29.87;57.77
18533;BME280;9396;51.510;11.934;2023-07-24T09:32:42;99231.19;;;29.89;56.73
18533;BME280;9396;51.510;11.934;2023-07-24T09:35:16;99225.50;;;29.86;56.31
18533;BME280;9396;51.510;11.934;2023-07-24T09:37:44;99238.72;;;29.84;56.71
18533;BME280;9396;51.510;11.934;2023-07-24T09:40:11;99242.19;;;29.76;56.30
18533;BME280;9396;51.510;11.934;2023-07-24T09:42:38;99222.50;;;29.60;56.95
18533;BME280;9396;51.510;11.934;2023-07-24T09:45:09;99225.03;;;29.29;57.46
18533;BME280;9396;51.510;11.934;2023-07-24T09:47:36;99230.97;;;29.04;57.61
18533;BME280;9396;51.510;11.934;2023-07-24T09:50:03;99231.13;;;28.81;58.07
18533;BME280;9396;51.510;11.934;2023-07-24T09:52:30;99231.13;;;28.67;58.38
18533;BME280;9396;51.510;11.934;2023-07-24T09:55:02;99233.94;;;28.43;58.58
18533;BME280;9396;51.510;11.934;2023-07-24T09:57:32;99228.44;;;28.30;58.96
18533;BME280;9396;51.510;11.934;2023-07-24T09:59:59;99217.13;;;28.18;59.38
18533;BME280;9396;51.510;11.934;2023-07-24T10:02:29;99204.53;;;28.35;59.75
18533;BME280;9396;51.510;11.934;2023-07-24T10:04:56;99199.72;;;28.46;59.37
18533;BME280;9396;51.510;11.934;2023-07-24T10:07:24;99184.28;;;28.50;58.79
18533;BME280;9396;51.510;11.934;2023-07-24T10:09:51;99195.22;;;28.55;58.53
18533;BME280;9396;51.510;11.934;2023-07-24T10:12:19;99198.44;;;28.57;58.40
18533;BME280;9396;51.510;11.934;2023-07-24T10:14:46;99187.31;;;28.67;58.85
18533;BME280;9396;51.510;11.934;2023-07-24T10:17:13;99179.19;;;28.62;58.48
18533;BME280;9396;51.510;11.934;2023-07-24T10:19:42;99167.03;;;28.68;58.51
18533;BME280;9396;51.510;11.934;2023-07-24T10:22:09;99170.78;;;28.59;58.37
18533;BME280;9396;51.510;11.934;2023-07-24T10:24:36;99184.28;;;28.50;58.41
18533;BME280;9396;51.510;11.934;2023-07-24T10:27:03;99176.16;;;28.45;58.23
18533;BME280;9396;51.510;11.934;2023-07-24T10:29:34;99171.41;;;28.37;58.58
18533;BME280;9396;51.510;11.934;2023-07-24T10:32:01;99164.34;;;28.17;58.84
18533;BME280;9396;51.510;11.934;2023-07-24T10:34:36;99167.84;;;28.04;59.18
18533;BME280;9396;51.510;11.934;2023-07-24T10:37:07;99169.84;;;27.99;59.50
18533;BME280;9396;51.510;11.934;2023-07-24T10:39:37;99169.97;;;27.89;59.30
18533;BME280;9396;51.510;11.934;2023-07-24T10:42:05;99164.56;;;27.84;60.88
18533;BME280;9396;51.510;11.934;2023-07-24T10:44:32;99162.34;;;27.67;61.11
18533;BME280;9396;51.510;11.934;2023-07-24T10:46:59;99153.50;;;27.57;63.31
18533;BME280;9396;51.510;11.934;2023-07-24T10:49:25;99153.34;;;27.48;62.00
18533;BME280;9396;51.510;11.934;2023-07-24T10:51:55;99150.38;;;27.44;62.42
18533;BME280;9396;51.510;11.934;2023-07-24T10:54:23;99146.47;;;27.32;61.54
18533;BME280;9396;51.510;11.934;2023-07-24T10:56:50;99136.06;;;27.29;61.97
18533;BME280;9396;51.510;11.934;2023-07-24T10:59:23;99130.59;;;27.34;61.25
18533;BME280;9396;51.510;11.934;2023-07-24T11:01:50;99137.28;;;27.41;62.49
18533;BME280;9396;51.510;11.934;2023-07-24T11:04:16;99128.59;;;27.39;61.95
18533;BME280;9396;51.510;11.934;2023-07-24T11:06:43;99122.16;;;27.49;62.37
18533;BME280;9396;51.510;11.934;2023-07-24T11:09:10;99112.84;;;27.69;62.28
18533;BME280;9396;51.510;11.934;2023-07-24T11:11:38;99115.06;;;27.85;61.19
18533;BME280;9396;51.510;11.934;2023-07-24T11:14:04;99122.13;;;27.86;61.58
18533;BME280;9396;51.510;11.934;2023-07-24T11:16:31;99129.25;;;27.87;61.97
18533;BME280;9396;51.510;11.934;2023-07-24T11:18:58;99108.25;;;27.83;62.19
18533;BME280;9396;51.510;11.934;2023-07-24T11:21:25;99101.69;;;27.84;59.96
18533;BME280;9396;51.510;11.934;2023-07-24T11:23:52;99125.63;;;27.92;60.10
18533;BME280;9396;51.510;11.934;2023-07-24T11:26:19;99117.78;;;28.04;59.12
18533;BME280;9396;51.510;11.934;2023-07-24T11:28:48;99117.88;;;27.99;59.78
18533;BME280;9396;51.510;11.934;2023-07-24T11:31:15;99127.28;;;27.93;60.00
18533;BME280;9396;51.510;11.934;2023-07-24T11:33:45;99108.38;;;27.91;59.83
18533;BME280;9396;51.510;11.934;2023-07-24T11:36:13;99116.69;;;27.86;58.92
18533;BME280;9396;51.510;11.934;2023-07-24T11:38:40;99113.19;;;27.81;62.29
18533;BME280;9396;51.510;11.934;2023-07-24T11:41:08;99116.47;;;27.83;60.36
18533;BME280;9396;51.510;11.934;2023-07-24T11:43:35;99105.09;;;27.76;59.82
18533;BME280;9396;51.510;11.934;2023-07-24T11:46:03;99111.75;;;27.70;59.48
18533;BME280;9396;51.510;11.934;2023-07-24T11:48:30;99100.38;;;27.63;61.04
18533;BME280;9396;51.510;11.934;2023-07-24T11:50:56;99093.72;;;27.69;60.10
18533;BME280;9396;51.510;11.934;2023-07-24T11:53:26;99090.84;;;27.79;60.76
18533;BME280;9396;51.510;11.934;2023-07-24T11:55:54;99097.94;;;27.80;59.76
18533;BME280;9396;51.510;11.934;2023-07-24T11:58:22;99094.75;;;27.73;59.70
18533;BME280;9396;51.510;11.934;2023-07-24T12:00:52;99098.81;;;27.75;60.75
18533;BME280;9396;51.510;11.934;2023-07-24T12:03:21;99098.00;;;27.75;59.19
18533;BME280;9396;51.510;11.934;2023-07-24T12:05:48;99085.78;;;27.54;61.63
18533;BME280;9396;51.510;11.934;2023-07-24T12:08:16;99074.41;;;27.47;61.43
18533;BME280;9396;51.510;11.934;2023-07-24T12:10:43;99071.50;;;27.38;61.61
18533;BME280;9396;51.510;11.934;2023-07-24T12:13:10;99070.50;;;27.34;62.31
18533;BME280;9396;51.510;11.934;2023-07-24T12:15:36;99063.97;;;27.30;62.32
18533;BME280;9396;51.510;11.934;2023-07-24T12:18:03;99063.38;;;27.14;62.19
18533;BME280;9396;51.510;11.934;2023-07-24T12:20:32;99068.94;;;27.04;61.79
18533;BME280;9396;51.510;11.934;2023-07-24T12:22:59;99070.75;;;26.90;62.57
18533;BME280;9396;51.510;11.934;2023-07-24T12:25:25;99069.22;;;26.84;61.49
18533;BME280;9396;51.510;11.934;2023-07-24T12:27:52;99065.44;;;26.80;62.50
18533;BME280;9396;51.510;11.934;2023-07-24T12:30:19;99052.44;;;26.72;62.77
18533;BME280;9396;51.510;11.934;2023-07-24T12:32:46;99061.25;;;26.64;62.82
18533;BME280;9396;51.510;11.934;2023-07-24T12:35:12;99065.41;;;26.57;63.13
18533;BME280;9396;51.510;11.934;2023-07-24T12:37:40;99071.78;;;26.47;62.88
18533;BME280;9396;51.510;11.934;2023-07-24T12:40:08;99062.88;;;26.41;63.05
18533;BME280;9396;51.510;11.934;2023-07-24T12:42:35;99063.38;;;26.43;63.14
18533;BME280;9396;51.510;11.934;2023-07-24T12:45:02;99052.22;;;26.40;63.03
18533;BME280;9396;51.510;11.934;2023-07-24T12:47:30;99062.63;;;26.38;64.65
18533;BME280;9396;51.510;11.934;2023-07-24T12:49:57;99055.31;;;26.33;63.87
18533;BME280;9396;51.510;11.934;2023-07-24T12:52:24;99055.31;;;26.33;64.37
18533;BME280;9396;51.510;11.934;2023-07-24T12:54:53;99056.69;;;26.31;63.73
18533;BME280;9396;51.510;11.934;2023-07-24T12:57:19;99049.56;;;26.35;64.30
18533;BME280;9396;51.510;11.934;2023-07-24T12:59:46;99031.53;;;26.39;65.42